EST,Max TemperatureF,Mean TemperatureF,Min TemperatureF,Max Dew PointF,MeanDew PointF,Min DewpointF,Max Humidity, Mean Humidity, Min Humidity, Max Sea Level PressureIn, Mean Sea Level PressureIn, Min Sea Level PressureIn, Max VisibilityMiles, Mean VisibilityMiles, Min VisibilityMiles, Max Wind SpeedMPH, Mean Wind SpeedMPH, Max Gust SpeedMPH,PrecipitationIn, CloudCover, Events, WindDirDegrees
2012-12-1,71,59,47,52,49,45,100,75,49,30.39,30.33,30.30,10,10,8,6,1,8,0.00,6,,359
2012-12-2,77,60,43,55,49,44,100,73,46,30.39,30.32,30.26,10,7,0,10,2,14,0.00,3,Fog,210
2012-12-3,76,61,45,59,51,45,100,72,43,30.35,30.30,30.24,10,4,0,10,1,14,0.00,3,Fog,209
2012-12-4,74,59,43,59,49,43,100,79,57,30.36,30.28,30.22,10,4,0,12,2,15,0.00,4,Fog,183
2012-12-5,75,61,47,57,51,46,100,72,43,30.23,30.18,30.10,10,7,0,14,3,16,0.00,6,Fog,279
2012-12-6,62,56,50,53,49,41,96,76,56,30.20,30.16,30.13,10,10,10,13,7,16,T,7,Rain,50
2012-12-7,63,54,44,52,45,39,100,80,60,30.14,30.08,30.01,10,9,2,12,3,15,0.02,6,Rain,16
2012-12-8,67,55,42,55,47,41,100,82,63,30.10,30.05,30.02,10,4,0,6,1,9,0.00,6,Fog,45
2012-12-9,71,60,49,61,54,48,100,87,73,30.13,30.07,30.00,10,4,0,12,2,14,0.00,5,Fog,220
2012-12-10,77,65,52,60,55,52,100,75,50,29.99,29.90,29.75,10,4,0,20,5,25,0.01,5,Fog-Rain,193
2012-12-11,61,57,52,59,49,40,100,76,51,30.12,29.94,29.78,10,10,7,13,5,15,0.00,7,,293
2012-12-12,53,48,43,45,42,39,93,80,66,30.25,30.19,30.12,10,8,2,15,7,20,0.70,8,Rain,12
2012-12-13,54,44,34,40,38,33,100,77,54,30.37,30.30,30.23,10,10,7,18,8,22,0.01,6,Rain,24
2012-12-14,61,46,30,40,35,28,100,71,42,30.41,30.32,30.23,10,8,0,7,1,10,0.00,0,Snow,347
2012-12-15,62,49,35,50,40,34,100,70,39,30.25,30.18,30.10,10,9,6,8,2,10,0.00,4,,133
2012-12-16,66,59,52,61,56,50,100,89,78,30.10,30.01,29.88,10,6,0,14,3,18,0.05,8,Fog-Rain,188
2012-12-17,61,57,53,58,56,53,100,95,90,29.93,29.84,29.74,10,8,2,16,5,18,0.64,7,Rain,230
2012-12-18,64,50,35,57,46,30,100,65,30,30.02,29.84,29.76,10,8,0,22,8,31,0.00,2,Fog,258
2012-12-19,71,51,30,43,37,30,100,66,31,30.12,30.07,30.02,10,10,7,12,2,20,0.00,0,,247
2012-12-20,72,52,32,63,45,32,100,77,53,30.10,29.93,29.67,10,5,0,32,9,44,0.38,5,Fog-Rain,199
2012-12-21,50,44,38,29,23,17,58,45,32,30.06,29.94,29.85,10,10,10,30,17,39,0.00,0,,280
2012-12-22,58,43,27,25,18,13,69,43,17,30.20,30.15,30.07,10,10,10,16,6,21,0.00,0,,265
2012-12-23,60,43,25,35,26,19,88,58,27,30.22,30.15,30.10,10,10,10,13,4,16,0.00,1,,238
2012-12-24,50,44,38,48,42,35,100,83,65,30.09,30.00,29.93,10,6,0,14,2,17,0.86,7,Fog-Rain,134
2012-12-25,53,51,48,52,50,48,100,95,89,30.07,30.01,29.90,10,4,0,12,4,14,0.54,8,Fog-Rain,80
2012-12-26,63,52,40,61,48,29,97,74,51,29.89,29.68,29.57,10,8,2,29,16,38,0.67,7,Rain-Thunderstorm,203
2012-12-27,54,43,31,34,31,29,92,68,44,30.09,30.00,29.88,10,10,10,23,7,29,0.00,0,,277
2012-12-28,55,42,28,40,33,27,100,73,46,30.15,30.07,29.92,10,9,5,8,2,14,0.00,1,,126
2012-12-29,51,45,38,45,40,28,100,79,58,30.13,29.89,29.76,10,7,2,28,12,35,0.79,7,Rain,313
2012-12-30,51,38,25,28,24,20,92,60,28,30.43,30.34,30.15,10,10,9,17,4,23,0.00,0,,317
2012-12-31,60,41,22,43,32,21,100,68,35,30.45,30.35,30.18,10,7,0,16,4,20,0.00,3,Fog,202